メインページ
METAR-TAF:

METAR-TAF

空港 :

フレデリクトン国際空港

フレデリクトン, ニューブランズウィック州, カナダ

緯度: 45-52N, 経度: 066-32W, 海抜: 17m

現時点の気象観測

当レポートは20分前の01:00(UTC)に作成
の風 2kt
気温 13°C
湿度 88%
気圧 1027 hPa
視程: 14.5km
晴天

METAR: CYFC 250100Z AUTO 18002KT 9SM CLR 13/11 A3032 RMK SLP269

時間: 22:20 (01:20 UTC)

予報

当レポートは1時間42分前の23:38(UTC)に作成
予報は25日の 00時(UTC)から 25日の 12時(UTC)まで有効
の風 7kt
視程: 10km
高度3000ftの雲はほとんどない
25日の 0300時(UTC)から
変向風 3kt
視程: 10km
晴天
確率 30%
25日の 09時(UTC)から 25日の 11時(UTC)まで
視程: 3.2km

TAF: CYFC 242338Z 2500/2512 08007KT P6SM FEW030 FM250300 VRB03KT P6SM SKC PROB30 2509/2511 2SM BR RMK FCST BASED ON AUTO OBS. NXT FCST BY 250600Z

4,000以上の空港の気象観測と天気予報(METAR報とTAF報)

利用可能な観測所は地図上に黄色い丸と赤い丸で示す。

丸の上にカーソルを重ねると観測所名を参照できる。

次にクリックすると気象観測と天気予報を参照できる。

マップの切り替え:黒色「×」印の緑ボタンをクリックして拡大、「-」印の緑ボタンをクリックして縮小、緑色の三角印をクリックして隣りの地図に切り替え


METAR-TAF: